sensor_id;sensor_type;location;lat;lon;timestamp;temperature;humidity
46608;DHT22;32330;51.936;7.184;2023-07-13T00:01:51;17.10;1.00
46608;DHT22;32330;51.936;7.184;2023-07-13T00:04:21;17.10;99.90
46608;DHT22;32330;51.936;7.184;2023-07-13T00:06:51;17.10;99.90
46608;DHT22;32330;51.936;7.184;2023-07-13T00:09:20;17.00;99.90
46608;DHT22;32330;51.936;7.184;2023-07-13T00:11:52;17.00;99.90
46608;DHT22;32330;51.936;7.184;2023-07-13T00:14:19;17.00;99.90
46608;DHT22;32330;51.936;7.184;2023-07-13T00:16:46;16.90;99.90
46608;DHT22;32330;51.936;7.184;2023-07-13T00:19:14;16.90;99.90
46608;DHT22;32330;51.936;7.184;2023-07-13T00:21:41;16.80;99.90
46608;DHT22;32330;51.936;7.184;2023-07-13T00:24:12;16.80;99.90
46608;DHT22;32330;51.936;7.184;2023-07-13T00:26:41;16.80;99.90
46608;DHT22;32330;51.936;7.184;2023-07-13T00:29:10;16.80;99.90
46608;DHT22;32330;51.936;7.184;2023-07-13T00:31:37;16.70;99.90
46608;DHT22;32330;51.936;7.184;2023-07-13T00:34:05;16.70;99.90
46608;DHT22;32330;51.936;7.184;2023-07-13T00:36:32;16.70;99.90
46608;DHT22;32330;51.936;7.184;2023-07-13T00:38:59;16.70;99.90
46608;DHT22;32330;51.936;7.184;2023-07-13T00:41:26;16.60;99.90
46608;DHT22;32330;51.936;7.184;2023-07-13T00:43:55;16.60;99.90
46608;DHT22;32330;51.936;7.184;2023-07-13T00:46:25;16.50;99.90
46608;DHT22;32330;51.936;7.184;2023-07-13T00:48:54;16.50;99.90
46608;DHT22;32330;51.936;7.184;2023-07-13T00:51:28;16.40;1.00
46608;DHT22;32330;51.936;7.184;2023-07-13T00:54:02;16.40;1.00
46608;DHT22;32330;51.936;7.184;2023-07-13T00:56:30;16.40;1.00
46608;DHT22;32330;51.936;7.184;2023-07-13T00:59:03;16.40;1.00
46608;DHT22;32330;51.936;7.184;2023-07-13T01:01:31;16.40;1.00
46608;DHT22;32330;51.936;7.184;2023-07-13T01:03:58;16.40;99.90
46608;DHT22;32330;51.936;7.184;2023-07-13T01:06:25;16.40;99.90
46608;DHT22;32330;51.936;7.184;2023-07-13T01:08:52;16.40;99.90
46608;DHT22;32330;51.936;7.184;2023-07-13T01:11:21;16.40;99.90
46608;DHT22;32330;51.936;7.184;2023-07-13T01:13:48;16.40;99.90
46608;DHT22;32330;51.936;7.184;2023-07-13T01:16:24;16.40;99.90
46608;DHT22;32330;51.936;7.184;2023-07-13T01:18:51;16.40;99.90
46608;DHT22;32330;51.936;7.184;2023-07-13T01:21:20;16.30;99.90
46608;DHT22;32330;51.936;7.184;2023-07-13T01:23:47;16.40;99.90
46608;DHT22;32330;51.936;7.184;2023-07-13T01:26:14;16.30;99.90
46608;DHT22;32330;51.936;7.184;2023-07-13T01:28:41;16.30;99.90
46608;DHT22;32330;51.936;7.184;2023-07-13T01:31:09;16.30;99.90
46608;DHT22;32330;51.936;7.184;2023-07-13T01:33:37;16.30;99.90
46608;DHT22;32330;51.936;7.184;2023-07-13T01:36:05;16.30;99.90
46608;DHT22;32330;51.936;7.184;2023-07-13T01:38:35;16.30;99.90
46608;DHT22;32330;51.936;7.184;2023-07-13T01:41:03;16.20;99.90
46608;DHT22;32330;51.936;7.184;2023-07-13T01:43:30;16.20;99.90
46608;DHT22;32330;51.936;7.184;2023-07-13T01:45:59;16.20;99.90
46608;DHT22;32330;51.936;7.184;2023-07-13T01:48:26;16.10;99.90
46608;DHT22;32330;51.936;7.184;2023-07-13T01:50:53;16.10;99.90
46608;DHT22;32330;51.936;7.184;2023-07-13T01:53:20;16.10;99.90
46608;DHT22;32330;51.936;7.184;2023-07-13T01:55:49;16.00;99.90
46608;DHT22;32330;51.936;7.184;2023-07-13T01:58:16;16.10;99.90
46608;DHT22;32330;51.936;7.184;2023-07-13T02:00:43;16.00;99.90
46608;DHT22;32330;51.936;7.184;2023-07-13T02:03:10;16.00;1.00
46608;DHT22;32330;51.936;7.184;2023-07-13T02:05:37;16.00;1.00
46608;DHT22;32330;51.936;7.184;2023-07-13T02:08:04;15.90;1.00
46608;DHT22;32330;51.936;7.184;2023-07-13T02:10:31;15.90;1.00
46608;DHT22;32330;51.936;7.184;2023-07-13T02:13:00;15.80;1.00
46608;DHT22;32330;51.936;7.184;2023-07-13T02:15:27;15.80;1.00
46608;DHT22;32330;51.936;7.184;2023-07-13T02:17:54;15.80;1.00
46608;DHT22;32330;51.936;7.184;2023-07-13T02:20:22;15.80;1.00
46608;DHT22;32330;51.936;7.184;2023-07-13T02:22:49;15.70;1.00
46608;DHT22;32330;51.936;7.184;2023-07-13T02:25:19;15.70;1.00
46608;DHT22;32330;51.936;7.184;2023-07-13T02:27:47;15.70;1.00
46608;DHT22;32330;51.936;7.184;2023-07-13T02:30:18;15.60;1.00
46608;DHT22;32330;51.936;7.184;2023-07-13T02:32:45;15.60;1.00
46608;DHT22;32330;51.936;7.184;2023-07-13T02:35:12;15.70;1.00
46608;DHT22;32330;51.936;7.184;2023-07-13T02:37:40;15.60;1.00
46608;DHT22;32330;51.936;7.184;2023-07-13T02:40:08;15.60;1.00
46608;DHT22;32330;51.936;7.184;2023-07-13T02:42:35;15.60;1.00
46608;DHT22;32330;51.936;7.184;2023-07-13T02:45:03;15.50;1.00
46608;DHT22;32330;51.936;7.184;2023-07-13T02:47:32;15.50;1.00
46608;DHT22;32330;51.936;7.184;2023-07-13T02:49:59;15.50;1.00
46608;DHT22;32330;51.936;7.184;2023-07-13T02:52:26;15.50;1.00
46608;DHT22;32330;51.936;7.184;2023-07-13T02:54:53;15.40;1.00
46608;DHT22;32330;51.936;7.184;2023-07-13T02:57:20;15.40;1.00
46608;DHT22;32330;51.936;7.184;2023-07-13T02:59:48;15.40;1.00
46608;DHT22;32330;51.936;7.184;2023-07-13T03:02:15;15.30;1.00
46608;DHT22;32330;51.936;7.184;2023-07-13T03:04:44;15.20;1.00
46608;DHT22;32330;51.936;7.184;2023-07-13T03:07:11;15.30;1.00
46608;DHT22;32330;51.936;7.184;2023-07-13T03:09:40;15.20;1.00
46608;DHT22;32330;51.936;7.184;2023-07-13T03:12:08;15.20;1.00
46608;DHT22;32330;51.936;7.184;2023-07-13T03:14:36;15.20;1.00
46608;DHT22;32330;51.936;7.184;2023-07-13T03:17:05;15.20;1.00
46608;DHT22;32330;51.936;7.184;2023-07-13T03:19:35;15.20;1.00
46608;DHT22;32330;51.936;7.184;2023-07-13T03:22:05;15.20;1.00
46608;DHT22;32330;51.936;7.184;2023-07-13T03:24:34;15.20;1.00
46608;DHT22;32330;51.936;7.184;2023-07-13T03:27:05;15.20;1.00
46608;DHT22;32330;51.936;7.184;2023-07-13T03:29:34;15.10;1.00
46608;DHT22;32330;51.936;7.184;2023-07-13T03:32:02;15.10;1.00
46608;DHT22;32330;51.936;7.184;2023-07-13T03:34:30;15.10;1.00
46608;DHT22;32330;51.936;7.184;2023-07-13T03:36:58;15.10;1.00
46608;DHT22;32330;51.936;7.184;2023-07-13T03:39:27;15.10;1.00
46608;DHT22;32330;51.936;7.184;2023-07-13T03:41:56;15.00;1.00
46608;DHT22;32330;51.936;7.184;2023-07-13T03:44:23;15.10;1.00
46608;DHT22;32330;51.936;7.184;2023-07-13T03:46:54;15.10;1.00
46608;DHT22;32330;51.936;7.184;2023-07-13T03:49:21;15.10;1.00
46608;DHT22;32330;51.936;7.184;2023-07-13T03:51:48;15.10;1.00
46608;DHT22;32330;51.936;7.184;2023-07-13T03:54:16;15.20;1.00
46608;DHT22;32330;51.936;7.184;2023-07-13T03:56:45;15.20;1.00
46608;DHT22;32330;51.936;7.184;2023-07-13T03:59:12;15.20;2.60
46608;DHT22;32330;51.936;7.184;2023-07-13T04:01:39;15.30;1.00
46608;DHT22;32330;51.936;7.184;2023-07-13T04:04:07;15.20;3.30
46608;DHT22;32330;51.936;7.184;2023-07-13T04:06:34;15.30;3.60
46608;DHT22;32330;51.936;7.184;2023-07-13T04:09:02;15.30;2.80
46608;DHT22;32330;51.936;7.184;2023-07-13T04:11:31;15.30;6.10
46608;DHT22;32330;51.936;7.184;2023-07-13T04:14:01;15.30;6.70
46608;DHT22;32330;51.936;7.184;2023-07-13T04:16:28;15.30;5.20
46608;DHT22;32330;51.936;7.184;2023-07-13T04:18:55;15.40;5.80
46608;DHT22;32330;51.936;7.184;2023-07-13T04:21:26;15.40;7.40
46608;DHT22;32330;51.936;7.184;2023-07-13T04:23:53;15.50;3.10
46608;DHT22;32330;51.936;7.184;2023-07-13T04:26:20;15.50;4.20
46608;DHT22;32330;51.936;7.184;2023-07-13T04:28:48;15.50;6.10
46608;DHT22;32330;51.936;7.184;2023-07-13T04:31:18;15.60;5.00
46608;DHT22;32330;51.936;7.184;2023-07-13T04:33:45;15.70;3.70
46608;DHT22;32330;51.936;7.184;2023-07-13T04:36:15;15.70;8.70
46608;DHT22;32330;51.936;7.184;2023-07-13T04:38:42;15.60;7.80
46608;DHT22;32330;51.936;7.184;2023-07-13T04:41:09;15.70;8.30
46608;DHT22;32330;51.936;7.184;2023-07-13T04:43:37;15.80;12.50
46608;DHT22;32330;51.936;7.184;2023-07-13T04:46:06;15.70;9.70
46608;DHT22;32330;51.936;7.184;2023-07-13T04:48:35;15.80;8.90
46608;DHT22;32330;51.936;7.184;2023-07-13T04:51:03;15.80;6.30
46608;DHT22;32330;51.936;7.184;2023-07-13T04:53:30;15.80;14.20
46608;DHT22;32330;51.936;7.184;2023-07-13T04:55:58;15.80;10.50
46608;DHT22;32330;51.936;7.184;2023-07-13T04:58:25;15.80;12.10
46608;DHT22;32330;51.936;7.184;2023-07-13T05:00:53;15.80;12.60
46608;DHT22;32330;51.936;7.184;2023-07-13T05:03:20;15.90;11.70
46608;DHT22;32330;51.936;7.184;2023-07-13T05:05:56;15.90;9.60
46608;DHT22;32330;51.936;7.184;2023-07-13T05:08:23;15.90;10.10
46608;DHT22;32330;51.936;7.184;2023-07-13T05:10:51;15.90;12.40
46608;DHT22;32330;51.936;7.184;2023-07-13T05:13:18;16.00;13.50
46608;DHT22;32330;51.936;7.184;2023-07-13T05:15:46;16.00;14.30
46608;DHT22;32330;51.936;7.184;2023-07-13T05:18:14;16.10;11.30
46608;DHT22;32330;51.936;7.184;2023-07-13T05:20:41;16.00;13.60
46608;DHT22;32330;51.936;7.184;2023-07-13T05:23:10;16.00;11.10
46608;DHT22;32330;51.936;7.184;2023-07-13T05:25:37;16.00;12.20
46608;DHT22;32330;51.936;7.184;2023-07-13T05:28:04;16.00;11.70
46608;DHT22;32330;51.936;7.184;2023-07-13T05:30:31;16.00;16.60
46608;DHT22;32330;51.936;7.184;2023-07-13T05:32:59;16.00;16.10
46608;DHT22;32330;51.936;7.184;2023-07-13T05:35:26;16.00;12.40
46608;DHT22;32330;51.936;7.184;2023-07-13T05:37:53;16.00;14.30
46608;DHT22;32330;51.936;7.184;2023-07-13T05:40:22;16.10;17.00
46608;DHT22;32330;51.936;7.184;2023-07-13T05:42:49;16.20;12.30
46608;DHT22;32330;51.936;7.184;2023-07-13T05:45:21;16.40;12.00
46608;DHT22;32330;51.936;7.184;2023-07-13T05:47:48;16.50;7.20
46608;DHT22;32330;51.936;7.184;2023-07-13T05:50:16;16.70;4.60
46608;DHT22;32330;51.936;7.184;2023-07-13T05:52:45;16.80;1.00
46608;DHT22;32330;51.936;7.184;2023-07-13T05:55:12;16.70;1.00
46608;DHT22;32330;51.936;7.184;2023-07-13T05:57:41;16.80;1.00
46608;DHT22;32330;51.936;7.184;2023-07-13T06:00:09;16.90;1.00
46608;DHT22;32330;51.936;7.184;2023-07-13T06:02:39;17.00;1.00
46608;DHT22;32330;51.936;7.184;2023-07-13T06:05:08;17.20;1.00
46608;DHT22;32330;51.936;7.184;2023-07-13T06:07:35;17.30;1.00
46608;DHT22;32330;51.936;7.184;2023-07-13T06:10:02;17.40;1.00
46608;DHT22;32330;51.936;7.184;2023-07-13T06:12:30;17.40;1.00
46608;DHT22;32330;51.936;7.184;2023-07-13T06:14:58;17.40;1.00
46608;DHT22;32330;51.936;7.184;2023-07-13T06:17:25;17.40;1.00
46608;DHT22;32330;51.936;7.184;2023-07-13T06:19:52;17.60;1.00
46608;DHT22;32330;51.936;7.184;2023-07-13T06:22:19;17.70;1.00
46608;DHT22;32330;51.936;7.184;2023-07-13T06:24:46;17.90;1.00
46608;DHT22;32330;51.936;7.184;2023-07-13T06:27:13;17.90;1.00
46608;DHT22;32330;51.936;7.184;2023-07-13T06:29:41;18.00;1.00
46608;DHT22;32330;51.936;7.184;2023-07-13T06:32:12;18.10;1.00
46608;DHT22;32330;51.936;7.184;2023-07-13T06:34:39;18.20;99.90
46608;DHT22;32330;51.936;7.184;2023-07-13T06:37:06;18.30;99.90
46608;DHT22;32330;51.936;7.184;2023-07-13T06:39:34;18.40;1.00
46608;DHT22;32330;51.936;7.184;2023-07-13T06:42:01;18.50;99.90
46608;DHT22;32330;51.936;7.184;2023-07-13T06:44:28;18.70;99.90
46608;DHT22;32330;51.936;7.184;2023-07-13T06:46:55;18.60;99.90
46608;DHT22;32330;51.936;7.184;2023-07-13T06:49:24;18.50;99.90
46608;DHT22;32330;51.936;7.184;2023-07-13T06:51:51;18.50;99.90
46608;DHT22;32330;51.936;7.184;2023-07-13T06:54:18;18.30;99.90
46608;DHT22;32330;51.936;7.184;2023-07-13T06:56:45;18.20;99.90
46608;DHT22;32330;51.936;7.184;2023-07-13T06:59:12;18.40;99.90
46608;DHT22;32330;51.936;7.184;2023-07-13T07:01:39;18.50;99.90
46608;DHT22;32330;51.936;7.184;2023-07-13T07:04:06;18.60;99.90
46608;DHT22;32330;51.936;7.184;2023-07-13T07:06:35;18.80;99.90
46608;DHT22;32330;51.936;7.184;2023-07-13T07:09:03;18.70;99.90
46608;DHT22;32330;51.936;7.184;2023-07-13T07:11:30;18.80;99.90
46608;DHT22;32330;51.936;7.184;2023-07-13T07:13:57;18.80;99.90
46608;DHT22;32330;51.936;7.184;2023-07-13T07:16:25;18.70;99.90
46608;DHT22;32330;51.936;7.184;2023-07-13T07:18:52;18.60;99.90
46608;DHT22;32330;51.936;7.184;2023-07-13T07:21:19;18.70;99.90
46608;DHT22;32330;51.936;7.184;2023-07-13T07:23:50;18.60;99.90
46608;DHT22;32330;51.936;7.184;2023-07-13T07:26:18;18.60;99.90
46608;DHT22;32330;51.936;7.184;2023-07-13T07:28:45;18.80;99.90
46608;DHT22;32330;51.936;7.184;2023-07-13T07:31:15;18.90;99.90
46608;DHT22;32330;51.936;7.184;2023-07-13T07:33:42;18.80;99.90
46608;DHT22;32330;51.936;7.184;2023-07-13T07:36:09;18.90;99.90
46608;DHT22;32330;51.936;7.184;2023-07-13T07:38:37;18.80;99.90
46608;DHT22;32330;51.936;7.184;2023-07-13T07:41:06;18.80;99.90
46608;DHT22;32330;51.936;7.184;2023-07-13T07:43:33;18.90;99.90
46608;DHT22;32330;51.936;7.184;2023-07-13T07:46:00;18.80;99.90
46608;DHT22;32330;51.936;7.184;2023-07-13T07:48:27;18.90;99.90
46608;DHT22;32330;51.936;7.184;2023-07-13T07:50:54;18.90;99.90
46608;DHT22;32330;51.936;7.184;2023-07-13T07:53:21;19.20;99.90
46608;DHT22;32330;51.936;7.184;2023-07-13T07:55:48;19.10;99.90
46608;DHT22;32330;51.936;7.184;2023-07-13T07:58:18;19.30;99.90
46608;DHT22;32330;51.936;7.184;2023-07-13T08:00:45;19.50;99.90
46608;DHT22;32330;51.936;7.184;2023-07-13T08:03:12;19.50;99.90
46608;DHT22;32330;51.936;7.184;2023-07-13T08:05:39;19.50;99.90
46608;DHT22;32330;51.936;7.184;2023-07-13T08:08:06;19.80;99.90
46608;DHT22;32330;51.936;7.184;2023-07-13T08:10:35;19.90;99.90
46608;DHT22;32330;51.936;7.184;2023-07-13T08:13:03;20.10;99.90
46608;DHT22;32330;51.936;7.184;2023-07-13T08:15:33;20.30;99.90
46608;DHT22;32330;51.936;7.184;2023-07-13T08:18:00;20.30;99.90
46608;DHT22;32330;51.936;7.184;2023-07-13T08:20:28;20.30;99.90
46608;DHT22;32330;51.936;7.184;2023-07-13T08:22:55;20.60;99.90
46608;DHT22;32330;51.936;7.184;2023-07-13T08:25:22;20.80;99.90
46608;DHT22;32330;51.936;7.184;2023-07-13T08:27:49;21.00;99.90
46608;DHT22;32330;51.936;7.184;2023-07-13T08:30:17;20.70;99.90
46608;DHT22;32330;51.936;7.184;2023-07-13T08:32:45;20.70;99.90
46608;DHT22;32330;51.936;7.184;2023-07-13T08:35:12;20.80;99.90
46608;DHT22;32330;51.936;7.184;2023-07-13T08:37:41;20.70;99.90
46608;DHT22;32330;51.936;7.184;2023-07-13T08:40:10;20.70;99.90
46608;DHT22;32330;51.936;7.184;2023-07-13T08:42:42;20.80;99.90
46608;DHT22;32330;51.936;7.184;2023-07-13T08:45:18;20.90;99.90
46608;DHT22;32330;51.936;7.184;2023-07-13T08:47:53;21.00;99.90
46608;DHT22;32330;51.936;7.184;2023-07-13T08:50:33;21.00;99.90
46608;DHT22;32330;51.936;7.184;2023-07-13T08:53:02;21.10;99.90
46608;DHT22;32330;51.936;7.184;2023-07-13T08:55:34;20.90;99.90
46608;DHT22;32330;51.936;7.184;2023-07-13T08:58:11;20.70;89.00
46608;DHT22;32330;51.936;7.184;2023-07-13T09:00:46;20.60;99.90
46608;DHT22;32330;51.936;7.184;2023-07-13T09:03:20;20.70;99.90
46608;DHT22;32330;51.936;7.184;2023-07-13T09:05:52;21.00;99.90
46608;DHT22;32330;51.936;7.184;2023-07-13T09:08:47;21.10;99.90
46608;DHT22;32330;51.936;7.184;2023-07-13T09:11:36;21.10;43.00
46608;DHT22;32330;51.936;7.184;2023-07-13T09:14:19;21.00;56.00
46608;DHT22;32330;51.936;7.184;2023-07-13T09:16:51;21.20;60.80
46608;DHT22;32330;51.936;7.184;2023-07-13T09:19:23;21.30;11.00
46608;DHT22;32330;51.936;7.184;2023-07-13T09:21:52;21.10;3.20
46608;DHT22;32330;51.936;7.184;2023-07-13T09:24:33;21.20;1.00
46608;DHT22;32330;51.936;7.184;2023-07-13T09:29:37;21.30;1.00
46608;DHT22;32330;51.936;7.184;2023-07-13T09:32:10;21.70;1.00
46608;DHT22;32330;51.936;7.184;2023-07-13T09:34:40;21.90;1.00
46608;DHT22;32330;51.936;7.184;2023-07-13T09:37:10;21.80;99.90
46608;DHT22;32330;51.936;7.184;2023-07-13T09:39:39;21.70;99.90
46608;DHT22;32330;51.936;7.184;2023-07-13T09:42:14;21.60;99.90
46608;DHT22;32330;51.936;7.184;2023-07-13T09:44:52;21.50;99.90
46608;DHT22;32330;51.936;7.184;2023-07-13T09:47:21;21.50;99.90
46608;DHT22;32330;51.936;7.184;2023-07-13T09:49:56;21.70;99.90
46608;DHT22;32330;51.936;7.184;2023-07-13T09:52:24;21.70;99.90
46608;DHT22;32330;51.936;7.184;2023-07-13T09:54:54;21.80;99.90
46608;DHT22;32330;51.936;7.184;2023-07-13T09:57:26;22.20;99.90
46608;DHT22;32330;51.936;7.184;2023-07-13T09:59:55;22.70;99.90
46608;DHT22;32330;51.936;7.184;2023-07-13T10:02:27;23.20;99.90
46608;DHT22;32330;51.936;7.184;2023-07-13T10:05:00;23.30;1.00
46608;DHT22;32330;51.936;7.184;2023-07-13T10:07:30;23.00;99.90
46608;DHT22;32330;51.936;7.184;2023-07-13T10:09:59;23.40;99.90
46608;DHT22;32330;51.936;7.184;2023-07-13T10:12:28;23.10;1.00
46608;DHT22;32330;51.936;7.184;2023-07-13T10:14:58;22.70;99.90
46608;DHT22;32330;51.936;7.184;2023-07-13T10:17:30;23.00;99.90
46608;DHT22;32330;51.936;7.184;2023-07-13T10:20:05;22.80;99.90
46608;DHT22;32330;51.936;7.184;2023-07-13T10:22:43;23.20;99.90
46608;DHT22;32330;51.936;7.184;2023-07-13T10:25:16;23.40;99.90
46608;DHT22;32330;51.936;7.184;2023-07-13T10:27:45;23.80;99.90
46608;DHT22;32330;51.936;7.184;2023-07-13T10:30:17;23.50;27.10
46608;DHT22;32330;51.936;7.184;2023-07-13T10:32:46;23.60;1.00
46608;DHT22;32330;51.936;7.184;2023-07-13T10:35:17;23.20;99.90
46608;DHT22;32330;51.936;7.184;2023-07-13T10:37:45;23.20;99.90
46608;DHT22;32330;51.936;7.184;2023-07-13T10:40:18;23.70;99.90
46608;DHT22;32330;51.936;7.184;2023-07-13T10:42:50;23.70;99.90
46608;DHT22;32330;51.936;7.184;2023-07-13T10:45:20;23.60;99.90
46608;DHT22;32330;51.936;7.184;2023-07-13T10:47:50;23.90;99.90
46608;DHT22;32330;51.936;7.184;2023-07-13T10:50:22;24.30;99.90
46608;DHT22;32330;51.936;7.184;2023-07-13T10:52:52;23.90;99.90
46608;DHT22;32330;51.936;7.184;2023-07-13T10:55:39;23.50;99.90
46608;DHT22;32330;51.936;7.184;2023-07-13T10:58:13;23.60;99.90
46608;DHT22;32330;51.936;7.184;2023-07-13T11:00:47;24.00;99.90
46608;DHT22;32330;51.936;7.184;2023-07-13T11:03:18;24.40;99.90
46608;DHT22;32330;51.936;7.184;2023-07-13T11:05:51;24.50;78.80
46608;DHT22;32330;51.936;7.184;2023-07-13T11:08:33;24.50;12.20
46608;DHT22;32330;51.936;7.184;2023-07-13T11:11:02;24.50;99.90
46608;DHT22;32330;51.936;7.184;2023-07-13T11:16:41;24.80;99.90
46608;DHT22;32330;51.936;7.184;2023-07-13T11:22:21;25.20;1.00
46608;DHT22;32330;51.936;7.184;2023-07-13T11:24:55;25.10;1.00
46608;DHT22;32330;51.936;7.184;2023-07-13T11:27:35;24.90;99.90
46608;DHT22;32330;51.936;7.184;2023-07-13T11:30:19;24.90;99.90
46608;DHT22;32330;51.936;7.184;2023-07-13T11:32:51;25.40;99.90
46608;DHT22;32330;51.936;7.184;2023-07-13T11:35:22;25.30;99.90
46608;DHT22;32330;51.936;7.184;2023-07-13T11:37:51;25.30;99.90
46608;DHT22;32330;51.936;7.184;2023-07-13T11:40:19;24.80;99.90
46608;DHT22;32330;51.936;7.184;2023-07-13T11:42:49;24.80;99.90
46608;DHT22;32330;51.936;7.184;2023-07-13T11:45:20;24.80;99.90
46608;DHT22;32330;51.936;7.184;2023-07-13T11:47:49;24.50;99.90
46608;DHT22;32330;51.936;7.184;2023-07-13T11:50:18;24.10;99.90
46608;DHT22;32330;51.936;7.184;2023-07-13T11:52:46;23.80;99.90
46608;DHT22;32330;51.936;7.184;2023-07-13T11:55:19;23.30;99.90
46608;DHT22;32330;51.936;7.184;2023-07-13T11:57:51;23.00;99.90
46608;DHT22;32330;51.936;7.184;2023-07-13T12:00:23;22.80;99.90
46608;DHT22;32330;51.936;7.184;2023-07-13T12:02:54;23.20;99.90
46608;DHT22;32330;51.936;7.184;2023-07-13T12:05:22;23.70;99.90
46608;DHT22;32330;51.936;7.184;2023-07-13T12:07:51;23.90;99.90
46608;DHT22;32330;51.936;7.184;2023-07-13T12:10:25;24.40;95.70
46608;DHT22;32330;51.936;7.184;2023-07-13T12:12:57;24.50;99.90
46608;DHT22;32330;51.936;7.184;2023-07-13T12:15:38;24.50;78.50
46608;DHT22;32330;51.936;7.184;2023-07-13T12:18:12;24.10;46.40
46608;DHT22;32330;51.936;7.184;2023-07-13T12:20:40;23.70;99.90
46608;DHT22;32330;51.936;7.184;2023-07-13T12:23:19;23.30;1.00
46608;DHT22;32330;51.936;7.184;2023-07-13T12:25:49;23.20;1.00
46608;DHT22;32330;51.936;7.184;2023-07-13T12:28:33;23.40;3.30
46608;DHT22;32330;51.936;7.184;2023-07-13T12:31:03;24.10;1.00
46608;DHT22;32330;51.936;7.184;2023-07-13T12:33:34;24.30;99.90
46608;DHT22;32330;51.936;7.184;2023-07-13T12:36:05;24.20;99.90
46608;DHT22;32330;51.936;7.184;2023-07-13T12:38:33;23.80;94.80
46608;DHT22;32330;51.936;7.184;2023-07-13T12:41:01;23.70;49.70
46608;DHT22;32330;51.936;7.184;2023-07-13T12:43:31;23.60;1.00
46608;DHT22;32330;51.936;7.184;2023-07-13T12:46:05;23.50;1.00
46608;DHT22;32330;51.936;7.184;2023-07-13T12:48:42;23.30;1.00
46608;DHT22;32330;51.936;7.184;2023-07-13T12:51:12;23.40;1.00
46608;DHT22;32330;51.936;7.184;2023-07-13T12:53:41;23.30;1.00
46608;DHT22;32330;51.936;7.184;2023-07-13T12:56:18;23.40;99.90
46608;DHT22;32330;51.936;7.184;2023-07-13T12:58:47;23.10;99.90
46608;DHT22;32330;51.936;7.184;2023-07-13T13:01:21;22.80;99.90
46608;DHT22;32330;51.936;7.184;2023-07-13T13:03:50;22.70;99.90
46608;DHT22;32330;51.936;7.184;2023-07-13T13:06:22;22.30;99.90
46608;DHT22;32330;51.936;7.184;2023-07-13T13:08:53;22.10;99.90
46608;DHT22;32330;51.936;7.184;2023-07-13T13:11:23;22.10;99.90
46608;DHT22;32330;51.936;7.184;2023-07-13T13:13:51;22.20;99.90
46608;DHT22;32330;51.936;7.184;2023-07-13T13:16:23;22.10;99.90
46608;DHT22;32330;51.936;7.184;2023-07-13T13:18:52;22.30;99.90
46608;DHT22;32330;51.936;7.184;2023-07-13T13:21:20;22.30;99.90
46608;DHT22;32330;51.936;7.184;2023-07-13T13:23:47;22.20;99.90
46608;DHT22;32330;51.936;7.184;2023-07-13T13:26:15;22.10;99.90
46608;DHT22;32330;51.936;7.184;2023-07-13T13:28:44;21.90;99.90
46608;DHT22;32330;51.936;7.184;2023-07-13T13:31:13;22.00;99.90
46608;DHT22;32330;51.936;7.184;2023-07-13T13:33:42;22.00;99.90
46608;DHT22;32330;51.936;7.184;2023-07-13T13:36:15;21.70;99.90
46608;DHT22;32330;51.936;7.184;2023-07-13T13:38:43;21.50;99.90
46608;DHT22;32330;51.936;7.184;2023-07-13T13:41:12;21.30;1.00
46608;DHT22;32330;51.936;7.184;2023-07-13T13:43:41;21.30;99.90
46608;DHT22;32330;51.936;7.184;2023-07-13T13:46:16;21.10;99.90
46608;DHT22;32330;51.936;7.184;2023-07-13T13:48:44;21.30;99.90
46608;DHT22;32330;51.936;7.184;2023-07-13T13:51:15;21.10;99.90
46608;DHT22;32330;51.936;7.184;2023-07-13T13:53:43;21.00;99.90
46608;DHT22;32330;51.936;7.184;2023-07-13T13:56:11;21.10;74.30
46608;DHT22;32330;51.936;7.184;2023-07-13T13:58:38;20.90;99.90
46608;DHT22;32330;51.936;7.184;2023-07-13T14:01:12;20.70;99.90
46608;DHT22;32330;51.936;7.184;2023-07-13T14:03:41;20.70;1.00
46608;DHT22;32330;51.936;7.184;2023-07-13T14:06:11;20.70;99.90
46608;DHT22;32330;51.936;7.184;2023-07-13T14:08:39;20.90;56.50
46608;DHT22;32330;51.936;7.184;2023-07-13T14:11:11;21.20;99.90
46608;DHT22;32330;51.936;7.184;2023-07-13T14:13:42;21.30;99.90
46608;DHT22;32330;51.936;7.184;2023-07-13T14:16:11;21.90;99.90
46608;DHT22;32330;51.936;7.184;2023-07-13T14:18:40;22.30;99.90
46608;DHT22;32330;51.936;7.184;2023-07-13T14:21:18;22.20;99.90
46608;DHT22;32330;51.936;7.184;2023-07-13T14:23:46;22.00;99.90
46608;DHT22;32330;51.936;7.184;2023-07-13T14:26:16;22.10;99.90
46608;DHT22;32330;51.936;7.184;2023-07-13T14:28:45;22.60;1.00
46608;DHT22;32330;51.936;7.184;2023-07-13T14:31:14;23.20;1.00
46608;DHT22;32330;51.936;7.184;2023-07-13T14:33:43;23.00;99.90
46608;DHT22;32330;51.936;7.184;2023-07-13T14:36:25;23.10;99.90
46608;DHT22;32330;51.936;7.184;2023-07-13T14:38:53;23.20;99.90
46608;DHT22;32330;51.936;7.184;2023-07-13T14:41:21;23.10;99.90
46608;DHT22;32330;51.936;7.184;2023-07-13T14:43:48;23.00;99.90
46608;DHT22;32330;51.936;7.184;2023-07-13T14:46:28;23.00;99.90
46608;DHT22;32330;51.936;7.184;2023-07-13T14:49:01;22.90;83.40
46608;DHT22;32330;51.936;7.184;2023-07-13T14:51:29;23.30;99.90
46608;DHT22;32330;51.936;7.184;2023-07-13T14:53:57;23.30;99.90
46608;DHT22;32330;51.936;7.184;2023-07-13T14:56:25;23.00;99.90
46608;DHT22;32330;51.936;7.184;2023-07-13T14:58:52;22.90;99.90
46608;DHT22;32330;51.936;7.184;2023-07-13T15:01:20;22.90;99.90
46608;DHT22;32330;51.936;7.184;2023-07-13T15:03:50;22.80;99.90
46608;DHT22;32330;51.936;7.184;2023-07-13T15:06:19;22.90;99.90
46608;DHT22;32330;51.936;7.184;2023-07-13T15:08:47;22.30;50.00
46608;DHT22;32330;51.936;7.184;2023-07-13T15:11:16;22.30;99.90
46608;DHT22;32330;51.936;7.184;2023-07-13T15:13:43;22.50;99.90
46608;DHT22;32330;51.936;7.184;2023-07-13T15:16:16;22.80;99.90
46608;DHT22;32330;51.936;7.184;2023-07-13T15:18:45;22.70;37.20
46608;DHT22;32330;51.936;7.184;2023-07-13T15:21:17;22.60;1.00
46608;DHT22;32330;51.936;7.184;2023-07-13T15:23:47;22.60;1.90
46608;DHT22;32330;51.936;7.184;2023-07-13T15:26:16;22.50;1.00
46608;DHT22;32330;51.936;7.184;2023-07-13T15:28:44;22.40;1.00
46608;DHT22;32330;51.936;7.184;2023-07-13T15:31:23;22.30;99.90
46608;DHT22;32330;51.936;7.184;2023-07-13T15:33:52;22.30;1.00
46608;DHT22;32330;51.936;7.184;2023-07-13T15:36:21;22.30;1.00
46608;DHT22;32330;51.936;7.184;2023-07-13T15:38:52;22.30;1.00
46608;DHT22;32330;51.936;7.184;2023-07-13T15:41:21;22.20;99.90
46608;DHT22;32330;51.936;7.184;2023-07-13T15:43:50;22.20;99.90
46608;DHT22;32330;51.936;7.184;2023-07-13T15:46:18;22.10;99.90
46608;DHT22;32330;51.936;7.184;2023-07-13T15:48:47;21.90;99.90
46608;DHT22;32330;51.936;7.184;2023-07-13T15:51:20;21.90;1.00
46608;DHT22;32330;51.936;7.184;2023-07-13T15:53:49;21.80;99.90
46608;DHT22;32330;51.936;7.184;2023-07-13T15:56:19;21.60;11.70
46608;DHT22;32330;51.936;7.184;2023-07-13T15:58:48;21.50;11.60